sensor_id;sensor_type;location;lat;lon;timestamp;P1;durP1;ratioP1;P2;durP2;ratioP2
31638;SDS011;18248;51.522;7.020;2023-12-28T00:01:28;10.77;;;2.35;;
31638;SDS011;18248;51.522;7.020;2023-12-28T00:04:26;5.45;;;1.88;;
31638;SDS011;18248;51.522;7.020;2023-12-28T00:07:26;5.53;;;2.15;;
31638;SDS011;18248;51.522;7.020;2023-12-28T00:10:25;3.65;;;2.00;;
31638;SDS011;18248;51.522;7.020;2023-12-28T00:13:24;5.47;;;2.20;;
31638;SDS011;18248;51.522;7.020;2023-12-28T00:16:23;4.85;;;2.40;;
31638;SDS011;18248;51.522;7.020;2023-12-28T00:19:21;5.25;;;2.05;;
31638;SDS011;18248;51.522;7.020;2023-12-28T00:22:20;10.20;;;2.75;;
31638;SDS011;18248;51.522;7.020;2023-12-28T00:25:18;8.65;;;2.35;;
31638;SDS011;18248;51.522;7.020;2023-12-28T00:28:17;7.28;;;2.35;;
31638;SDS011;18248;51.522;7.020;2023-12-28T00:31:16;5.43;;;2.03;;
31638;SDS011;18248;51.522;7.020;2023-12-28T00:34:14;5.40;;;2.38;;
31638;SDS011;18248;51.522;7.020;2023-12-28T00:37:13;2.72;;;1.83;;
31638;SDS011;18248;51.522;7.020;2023-12-28T00:40:11;4.28;;;1.80;;
31638;SDS011;18248;51.522;7.020;2023-12-28T00:43:10;4.53;;;1.90;;
31638;SDS011;18248;51.522;7.020;2023-12-28T00:46:08;5.68;;;2.35;;
31638;SDS011;18248;51.522;7.020;2023-12-28T00:49:08;4.38;;;2.35;;
31638;SDS011;18248;51.522;7.020;2023-12-28T00:52:06;3.65;;;1.80;;
31638;SDS011;18248;51.522;7.020;2023-12-28T00:55:05;3.45;;;1.73;;
31638;SDS011;18248;51.522;7.020;2023-12-28T00:58:04;4.22;;;2.05;;
31638;SDS011;18248;51.522;7.020;2023-12-28T01:01:02;6.70;;;2.20;;
31638;SDS011;18248;51.522;7.020;2023-12-28T01:04:01;5.10;;;1.90;;
31638;SDS011;18248;51.522;7.020;2023-12-28T01:07:00;6.57;;;1.90;;
31638;SDS011;18248;51.522;7.020;2023-12-28T01:10:00;6.70;;;2.15;;
31638;SDS011;18248;51.522;7.020;2023-12-28T01:12:58;11.15;;;2.33;;
31638;SDS011;18248;51.522;7.020;2023-12-28T01:15:57;3.38;;;1.77;;
31638;SDS011;18248;51.522;7.020;2023-12-28T01:18:55;4.90;;;1.80;;
31638;SDS011;18248;51.522;7.020;2023-12-28T01:21:54;8.02;;;2.17;;
31638;SDS011;18248;51.522;7.020;2023-12-28T01:24:52;3.67;;;1.90;;
31638;SDS011;18248;51.522;7.020;2023-12-28T01:27:51;4.15;;;1.80;;
31638;SDS011;18248;51.522;7.020;2023-12-28T01:30:50;3.25;;;1.83;;
31638;SDS011;18248;51.522;7.020;2023-12-28T01:33:48;4.55;;;2.30;;
31638;SDS011;18248;51.522;7.020;2023-12-28T01:36:47;4.85;;;2.38;;
31638;SDS011;18248;51.522;7.020;2023-12-28T01:39:45;6.05;;;1.83;;
31638;SDS011;18248;51.522;7.020;2023-12-28T01:42:44;5.13;;;2.35;;
31638;SDS011;18248;51.522;7.020;2023-12-28T01:45:43;7.07;;;2.08;;
31638;SDS011;18248;51.522;7.020;2023-12-28T01:48:43;4.88;;;2.00;;
31638;SDS011;18248;51.522;7.020;2023-12-28T01:51:43;5.05;;;1.95;;
31638;SDS011;18248;51.522;7.020;2023-12-28T01:54:43;5.45;;;2.08;;
31638;SDS011;18248;51.522;7.020;2023-12-28T01:57:42;10.10;;;2.10;;
31638;SDS011;18248;51.522;7.020;2023-12-28T02:00:41;6.00;;;1.95;;
31638;SDS011;18248;51.522;7.020;2023-12-28T02:03:40;5.65;;;2.25;;
31638;SDS011;18248;51.522;7.020;2023-12-28T02:06:39;5.03;;;2.60;;
31638;SDS011;18248;51.522;7.020;2023-12-28T02:09:37;3.65;;;1.85;;
31638;SDS011;18248;51.522;7.020;2023-12-28T02:12:36;5.85;;;2.67;;
31638;SDS011;18248;51.522;7.020;2023-12-28T02:15:35;5.95;;;2.50;;
31638;SDS011;18248;51.522;7.020;2023-12-28T02:18:34;6.15;;;2.75;;
31638;SDS011;18248;51.522;7.020;2023-12-28T02:21:37;4.90;;;2.42;;
31638;SDS011;18248;51.522;7.020;2023-12-28T02:25:21;6.72;;;2.45;;
31638;SDS011;18248;51.522;7.020;2023-12-28T02:28:07;5.25;;;2.20;;
31638;SDS011;18248;51.522;7.020;2023-12-28T02:31:06;9.10;;;2.95;;
31638;SDS011;18248;51.522;7.020;2023-12-28T02:34:12;7.93;;;3.33;;
31638;SDS011;18248;51.522;7.020;2023-12-28T02:37:15;7.15;;;2.92;;
31638;SDS011;18248;51.522;7.020;2023-12-28T02:40:15;5.30;;;2.13;;
31638;SDS011;18248;51.522;7.020;2023-12-28T02:43:15;6.05;;;2.28;;
31638;SDS011;18248;51.522;7.020;2023-12-28T02:46:14;7.32;;;3.20;;
31638;SDS011;18248;51.522;7.020;2023-12-28T02:49:12;4.25;;;2.53;;
31638;SDS011;18248;51.522;7.020;2023-12-28T02:52:13;6.05;;;2.58;;
31638;SDS011;18248;51.522;7.020;2023-12-28T02:55:11;4.43;;;2.30;;
31638;SDS011;18248;51.522;7.020;2023-12-28T02:58:10;5.80;;;2.97;;
31638;SDS011;18248;51.522;7.020;2023-12-28T03:01:08;4.80;;;2.47;;
31638;SDS011;18248;51.522;7.020;2023-12-28T03:04:07;6.20;;;3.30;;
31638;SDS011;18248;51.522;7.020;2023-12-28T03:07:07;5.75;;;2.80;;
31638;SDS011;18248;51.522;7.020;2023-12-28T03:10:06;10.32;;;3.20;;
31638;SDS011;18248;51.522;7.020;2023-12-28T03:13:05;8.20;;;3.67;;
31638;SDS011;18248;51.522;7.020;2023-12-28T03:16:04;12.60;;;5.43;;
31638;SDS011;18248;51.522;7.020;2023-12-28T03:19:03;12.50;;;6.47;;
31638;SDS011;18248;51.522;7.020;2023-12-28T03:22:01;11.18;;;6.15;;
31638;SDS011;18248;51.522;7.020;2023-12-28T03:25:00;14.50;;;6.97;;
31638;SDS011;18248;51.522;7.020;2023-12-28T03:27:59;18.25;;;7.10;;
31638;SDS011;18248;51.522;7.020;2023-12-28T03:30:57;12.55;;;5.07;;
31638;SDS011;18248;51.522;7.020;2023-12-28T03:33:57;6.75;;;3.83;;
31638;SDS011;18248;51.522;7.020;2023-12-28T03:36:55;8.45;;;3.50;;
31638;SDS011;18248;51.522;7.020;2023-12-28T03:39:55;4.90;;;2.55;;
31638;SDS011;18248;51.522;7.020;2023-12-28T03:42:53;6.05;;;2.65;;
31638;SDS011;18248;51.522;7.020;2023-12-28T03:45:52;8.10;;;2.70;;
31638;SDS011;18248;51.522;7.020;2023-12-28T03:48:50;9.35;;;3.05;;
31638;SDS011;18248;51.522;7.020;2023-12-28T03:51:49;9.75;;;2.83;;
31638;SDS011;18248;51.522;7.020;2023-12-28T03:54:48;7.47;;;2.60;;
31638;SDS011;18248;51.522;7.020;2023-12-28T03:57:47;9.85;;;3.33;;
31638;SDS011;18248;51.522;7.020;2023-12-28T04:00:45;8.63;;;3.08;;
31638;SDS011;18248;51.522;7.020;2023-12-28T04:03:44;7.43;;;2.60;;
31638;SDS011;18248;51.522;7.020;2023-12-28T04:06:43;5.32;;;2.70;;
31638;SDS011;18248;51.522;7.020;2023-12-28T04:09:42;8.55;;;3.00;;
31638;SDS011;18248;51.522;7.020;2023-12-28T04:12:40;5.03;;;2.42;;
31638;SDS011;18248;51.522;7.020;2023-12-28T04:15:41;8.82;;;2.67;;
31638;SDS011;18248;51.522;7.020;2023-12-28T04:18:41;9.60;;;2.38;;
31638;SDS011;18248;51.522;7.020;2023-12-28T04:21:42;6.78;;;2.53;;
31638;SDS011;18248;51.522;7.020;2023-12-28T04:24:41;7.65;;;2.58;;
31638;SDS011;18248;51.522;7.020;2023-12-28T04:27:41;6.32;;;2.28;;
31638;SDS011;18248;51.522;7.020;2023-12-28T04:30:39;5.38;;;2.45;;
31638;SDS011;18248;51.522;7.020;2023-12-28T04:33:38;8.23;;;2.65;;
31638;SDS011;18248;51.522;7.020;2023-12-28T04:36:43;8.90;;;2.35;;
31638;SDS011;18248;51.522;7.020;2023-12-28T04:39:42;7.38;;;2.08;;
31638;SDS011;18248;51.522;7.020;2023-12-28T04:42:41;8.95;;;2.67;;
31638;SDS011;18248;51.522;7.020;2023-12-28T04:45:39;7.40;;;2.30;;
31638;SDS011;18248;51.522;7.020;2023-12-28T04:48:38;6.72;;;2.45;;
31638;SDS011;18248;51.522;7.020;2023-12-28T04:51:41;4.32;;;2.10;;
31638;SDS011;18248;51.522;7.020;2023-12-28T04:54:40;5.35;;;2.42;;
31638;SDS011;18248;51.522;7.020;2023-12-28T04:57:40;8.13;;;2.63;;
31638;SDS011;18248;51.522;7.020;2023-12-28T05:00:42;10.63;;;2.37;;
31638;SDS011;18248;51.522;7.020;2023-12-28T05:03:40;11.90;;;2.58;;
31638;SDS011;18248;51.522;7.020;2023-12-28T05:06:39;6.20;;;2.13;;
31638;SDS011;18248;51.522;7.020;2023-12-28T05:09:38;6.60;;;2.33;;
31638;SDS011;18248;51.522;7.020;2023-12-28T05:12:36;4.72;;;2.05;;
31638;SDS011;18248;51.522;7.020;2023-12-28T05:15:35;5.97;;;2.20;;
31638;SDS011;18248;51.522;7.020;2023-12-28T05:18:33;5.97;;;1.98;;
31638;SDS011;18248;51.522;7.020;2023-12-28T05:21:32;9.05;;;2.50;;
31638;SDS011;18248;51.522;7.020;2023-12-28T05:24:30;6.70;;;2.05;;
31638;SDS011;18248;51.522;7.020;2023-12-28T05:27:29;7.85;;;2.33;;
31638;SDS011;18248;51.522;7.020;2023-12-28T05:30:27;5.57;;;2.15;;
31638;SDS011;18248;51.522;7.020;2023-12-28T05:33:26;5.20;;;2.22;;
31638;SDS011;18248;51.522;7.020;2023-12-28T05:36:24;9.50;;;2.00;;
31638;SDS011;18248;51.522;7.020;2023-12-28T05:39:23;7.20;;;2.03;;
31638;SDS011;18248;51.522;7.020;2023-12-28T05:42:21;12.38;;;3.13;;
31638;SDS011;18248;51.522;7.020;2023-12-28T05:45:20;7.78;;;2.50;;
31638;SDS011;18248;51.522;7.020;2023-12-28T05:48:18;10.95;;;2.35;;
31638;SDS011;18248;51.522;7.020;2023-12-28T05:51:17;4.85;;;1.92;;
31638;SDS011;18248;51.522;7.020;2023-12-28T05:54:16;5.95;;;2.13;;
31638;SDS011;18248;51.522;7.020;2023-12-28T05:57:15;10.65;;;2.30;;
31638;SDS011;18248;51.522;7.020;2023-12-28T06:00:16;9.55;;;1.88;;
31638;SDS011;18248;51.522;7.020;2023-12-28T06:03:15;5.18;;;2.03;;
31638;SDS011;18248;51.522;7.020;2023-12-28T06:06:13;9.10;;;2.40;;
31638;SDS011;18248;51.522;7.020;2023-12-28T06:09:12;8.27;;;2.10;;
31638;SDS011;18248;51.522;7.020;2023-12-28T06:12:10;7.35;;;2.22;;
31638;SDS011;18248;51.522;7.020;2023-12-28T06:15:09;10.15;;;2.60;;
31638;SDS011;18248;51.522;7.020;2023-12-28T06:18:08;7.15;;;2.08;;
31638;SDS011;18248;51.522;7.020;2023-12-28T06:21:07;10.95;;;2.33;;
31638;SDS011;18248;51.522;7.020;2023-12-28T06:24:06;5.35;;;1.80;;
31638;SDS011;18248;51.522;7.020;2023-12-28T06:27:05;7.03;;;2.13;;
31638;SDS011;18248;51.522;7.020;2023-12-28T06:30:04;12.20;;;2.10;;
31638;SDS011;18248;51.522;7.020;2023-12-28T06:33:03;8.80;;;2.53;;
31638;SDS011;18248;51.522;7.020;2023-12-28T06:36:05;8.65;;;2.00;;
31638;SDS011;18248;51.522;7.020;2023-12-28T06:39:04;11.73;;;2.33;;
31638;SDS011;18248;51.522;7.020;2023-12-28T06:42:03;6.63;;;2.13;;
31638;SDS011;18248;51.522;7.020;2023-12-28T06:45:02;5.43;;;2.03;;
31638;SDS011;18248;51.522;7.020;2023-12-28T06:48:00;10.00;;;2.50;;
31638;SDS011;18248;51.522;7.020;2023-12-28T06:50:59;9.68;;;2.80;;
31638;SDS011;18248;51.522;7.020;2023-12-28T06:53:57;8.13;;;2.10;;
31638;SDS011;18248;51.522;7.020;2023-12-28T06:56:57;12.57;;;2.25;;
31638;SDS011;18248;51.522;7.020;2023-12-28T06:59:55;9.50;;;2.03;;
31638;SDS011;18248;51.522;7.020;2023-12-28T07:02:56;7.15;;;2.00;;
31638;SDS011;18248;51.522;7.020;2023-12-28T07:05:54;8.45;;;2.30;;
31638;SDS011;18248;51.522;7.020;2023-12-28T07:08:53;9.77;;;2.17;;
31638;SDS011;18248;51.522;7.020;2023-12-28T07:11:51;8.75;;;2.25;;
31638;SDS011;18248;51.522;7.020;2023-12-28T07:14:50;18.60;;;2.22;;
31638;SDS011;18248;51.522;7.020;2023-12-28T07:17:48;8.93;;;2.38;;
31638;SDS011;18248;51.522;7.020;2023-12-28T07:20:47;9.38;;;2.17;;
31638;SDS011;18248;51.522;7.020;2023-12-28T07:23:46;13.48;;;2.60;;
31638;SDS011;18248;51.522;7.020;2023-12-28T07:26:47;10.32;;;2.83;;
31638;SDS011;18248;51.522;7.020;2023-12-28T07:29:45;8.75;;;2.53;;
31638;SDS011;18248;51.522;7.020;2023-12-28T07:32:44;13.68;;;2.40;;
31638;SDS011;18248;51.522;7.020;2023-12-28T07:35:43;17.27;;;3.08;;
31638;SDS011;18248;51.522;7.020;2023-12-28T07:38:41;8.27;;;2.08;;
31638;SDS011;18248;51.522;7.020;2023-12-28T07:41:40;11.32;;;2.55;;
31638;SDS011;18248;51.522;7.020;2023-12-28T07:44:39;7.55;;;2.00;;
31638;SDS011;18248;51.522;7.020;2023-12-28T07:47:38;11.25;;;2.70;;
31638;SDS011;18248;51.522;7.020;2023-12-28T07:50:36;10.65;;;3.13;;
31638;SDS011;18248;51.522;7.020;2023-12-28T07:53:35;11.88;;;3.30;;
31638;SDS011;18248;51.522;7.020;2023-12-28T07:56:33;13.57;;;2.85;;
31638;SDS011;18248;51.522;7.020;2023-12-28T07:59:32;9.43;;;2.50;;
31638;SDS011;18248;51.522;7.020;2023-12-28T08:02:31;13.05;;;2.67;;
31638;SDS011;18248;51.522;7.020;2023-12-28T08:05:29;9.30;;;2.40;;
31638;SDS011;18248;51.522;7.020;2023-12-28T08:08:28;16.77;;;3.05;;
31638;SDS011;18248;51.522;7.020;2023-12-28T08:11:27;10.18;;;2.10;;
31638;SDS011;18248;51.522;7.020;2023-12-28T08:14:25;14.50;;;2.33;;
31638;SDS011;18248;51.522;7.020;2023-12-28T08:17:24;11.02;;;2.08;;
31638;SDS011;18248;51.522;7.020;2023-12-28T08:20:22;18.63;;;2.58;;
31638;SDS011;18248;51.522;7.020;2023-12-28T08:23:21;10.13;;;2.55;;
31638;SDS011;18248;51.522;7.020;2023-12-28T08:26:19;14.30;;;2.85;;
31638;SDS011;18248;51.522;7.020;2023-12-28T08:29:18;17.88;;;2.90;;
31638;SDS011;18248;51.522;7.020;2023-12-28T08:32:17;13.70;;;2.60;;
31638;SDS011;18248;51.522;7.020;2023-12-28T08:35:15;7.07;;;2.15;;
31638;SDS011;18248;51.522;7.020;2023-12-28T08:38:14;12.02;;;2.53;;
31638;SDS011;18248;51.522;7.020;2023-12-28T08:41:19;19.02;;;3.25;;
31638;SDS011;18248;51.522;7.020;2023-12-28T08:44:18;10.80;;;2.13;;
31638;SDS011;18248;51.522;7.020;2023-12-28T08:47:17;10.82;;;2.42;;
31638;SDS011;18248;51.522;7.020;2023-12-28T08:50:15;12.35;;;3.30;;
31638;SDS011;18248;51.522;7.020;2023-12-28T08:53:14;19.25;;;2.70;;
31638;SDS011;18248;51.522;7.020;2023-12-28T08:56:16;15.40;;;2.50;;
31638;SDS011;18248;51.522;7.020;2023-12-28T08:59:16;12.70;;;2.03;;
31638;SDS011;18248;51.522;7.020;2023-12-28T09:02:14;15.10;;;2.85;;
31638;SDS011;18248;51.522;7.020;2023-12-28T09:05:13;14.52;;;2.42;;
31638;SDS011;18248;51.522;7.020;2023-12-28T09:08:12;13.07;;;2.60;;
31638;SDS011;18248;51.522;7.020;2023-12-28T09:11:10;17.80;;;2.67;;
31638;SDS011;18248;51.522;7.020;2023-12-28T09:14:09;14.65;;;3.08;;
31638;SDS011;18248;51.522;7.020;2023-12-28T09:17:08;18.67;;;3.72;;
31638;SDS011;18248;51.522;7.020;2023-12-28T09:20:06;14.13;;;2.63;;
31638;SDS011;18248;51.522;7.020;2023-12-28T09:23:06;19.35;;;3.70;;
31638;SDS011;18248;51.522;7.020;2023-12-28T09:26:05;12.68;;;2.60;;
31638;SDS011;18248;51.522;7.020;2023-12-28T09:29:04;16.20;;;2.72;;
31638;SDS011;18248;51.522;7.020;2023-12-28T09:32:03;13.70;;;2.85;;
31638;SDS011;18248;51.522;7.020;2023-12-28T09:35:02;19.95;;;2.97;;
31638;SDS011;18248;51.522;7.020;2023-12-28T09:38:00;11.98;;;2.92;;
31638;SDS011;18248;51.522;7.020;2023-12-28T09:41:02;13.63;;;2.75;;
31638;SDS011;18248;51.522;7.020;2023-12-28T09:44:14;16.73;;;3.10;;
31638;SDS011;18248;51.522;7.020;2023-12-28T09:47:15;22.02;;;2.88;;
31638;SDS011;18248;51.522;7.020;2023-12-28T09:50:15;18.17;;;2.95;;
31638;SDS011;18248;51.522;7.020;2023-12-28T09:53:16;21.80;;;3.10;;
31638;SDS011;18248;51.522;7.020;2023-12-28T09:56:15;17.23;;;3.20;;
31638;SDS011;18248;51.522;7.020;2023-12-28T09:59:14;23.20;;;3.40;;
31638;SDS011;18248;51.522;7.020;2023-12-28T10:02:14;16.35;;;2.92;;
31638;SDS011;18248;51.522;7.020;2023-12-28T10:05:13;13.45;;;2.72;;
31638;SDS011;18248;51.522;7.020;2023-12-28T10:08:13;17.85;;;2.97;;
31638;SDS011;18248;51.522;7.020;2023-12-28T10:11:12;19.30;;;2.92;;
31638;SDS011;18248;51.522;7.020;2023-12-28T10:14:15;15.15;;;2.97;;
31638;SDS011;18248;51.522;7.020;2023-12-28T10:17:14;20.30;;;2.88;;
31638;SDS011;18248;51.522;7.020;2023-12-28T10:20:13;12.27;;;2.40;;
31638;SDS011;18248;51.522;7.020;2023-12-28T10:23:12;19.52;;;3.10;;
31638;SDS011;18248;51.522;7.020;2023-12-28T10:26:10;14.63;;;3.50;;
31638;SDS011;18248;51.522;7.020;2023-12-28T10:29:09;21.70;;;3.28;;
31638;SDS011;18248;51.522;7.020;2023-12-28T10:32:08;20.33;;;3.33;;
31638;SDS011;18248;51.522;7.020;2023-12-28T10:35:06;12.90;;;2.90;;
31638;SDS011;18248;51.522;7.020;2023-12-28T10:38:05;16.27;;;3.40;;
31638;SDS011;18248;51.522;7.020;2023-12-28T10:41:08;16.02;;;2.95;;
31638;SDS011;18248;51.522;7.020;2023-12-28T10:44:07;17.67;;;3.30;;
31638;SDS011;18248;51.522;7.020;2023-12-28T10:47:11;15.15;;;3.20;;
31638;SDS011;18248;51.522;7.020;2023-12-28T10:50:17;15.95;;;3.05;;
31638;SDS011;18248;51.522;7.020;2023-12-28T10:56:46;15.93;;;3.10;;
31638;SDS011;18248;51.522;7.020;2023-12-28T11:00:00;12.18;;;2.70;;
31638;SDS011;18248;51.522;7.020;2023-12-28T11:03:10;21.27;;;3.40;;
31638;SDS011;18248;51.522;7.020;2023-12-28T11:06:13;15.02;;;2.92;;
31638;SDS011;18248;51.522;7.020;2023-12-28T11:09:15;15.75;;;2.63;;
31638;SDS011;18248;51.522;7.020;2023-12-28T11:12:15;20.73;;;3.15;;
31638;SDS011;18248;51.522;7.020;2023-12-28T11:15:17;15.25;;;4.20;;
31638;SDS011;18248;51.522;7.020;2023-12-28T11:18:17;15.82;;;3.28;;
31638;SDS011;18248;51.522;7.020;2023-12-28T11:21:16;17.20;;;2.70;;
31638;SDS011;18248;51.522;7.020;2023-12-28T11:24:16;24.38;;;3.28;;
31638;SDS011;18248;51.522;7.020;2023-12-28T11:27:15;11.90;;;3.13;;
31638;SDS011;18248;51.522;7.020;2023-12-28T11:30:14;13.30;;;2.47;;
31638;SDS011;18248;51.522;7.020;2023-12-28T11:33:13;14.10;;;2.67;;
31638;SDS011;18248;51.522;7.020;2023-12-28T11:36:18;21.08;;;2.70;;
31638;SDS011;18248;51.522;7.020;2023-12-28T11:39:30;14.90;;;2.70;;
31638;SDS011;18248;51.522;7.020;2023-12-28T11:42:32;13.80;;;2.22;;
31638;SDS011;18248;51.522;7.020;2023-12-28T11:45:31;16.55;;;3.55;;
31638;SDS011;18248;51.522;7.020;2023-12-28T11:48:30;12.60;;;2.25;;
31638;SDS011;18248;51.522;7.020;2023-12-28T11:51:28;13.73;;;2.55;;
31638;SDS011;18248;51.522;7.020;2023-12-28T11:54:27;22.70;;;3.10;;
31638;SDS011;18248;51.522;7.020;2023-12-28T11:57:26;17.67;;;3.03;;
31638;SDS011;18248;51.522;7.020;2023-12-28T12:00:25;14.43;;;2.85;;
31638;SDS011;18248;51.522;7.020;2023-12-28T12:03:24;18.70;;;3.03;;
31638;SDS011;18248;51.522;7.020;2023-12-28T12:06:24;12.55;;;2.60;;
31638;SDS011;18248;51.522;7.020;2023-12-28T12:09:22;16.75;;;2.10;;
31638;SDS011;18248;51.522;7.020;2023-12-28T12:12:21;10.68;;;2.42;;
31638;SDS011;18248;51.522;7.020;2023-12-28T12:15:20;12.15;;;2.13;;
31638;SDS011;18248;51.522;7.020;2023-12-28T12:18:18;12.70;;;2.83;;
31638;SDS011;18248;51.522;7.020;2023-12-28T12:21:17;15.25;;;3.40;;
31638;SDS011;18248;51.522;7.020;2023-12-28T12:24:19;14.55;;;2.85;;
31638;SDS011;18248;51.522;7.020;2023-12-28T12:27:18;14.25;;;2.78;;
31638;SDS011;18248;51.522;7.020;2023-12-28T12:30:19;15.10;;;2.63;;
31638;SDS011;18248;51.522;7.020;2023-12-28T12:33:17;18.40;;;3.00;;
31638;SDS011;18248;51.522;7.020;2023-12-28T12:36:16;11.80;;;2.97;;
31638;SDS011;18248;51.522;7.020;2023-12-28T12:39:15;17.73;;;3.03;;
31638;SDS011;18248;51.522;7.020;2023-12-28T12:42:14;19.35;;;3.15;;
31638;SDS011;18248;51.522;7.020;2023-12-28T12:45:12;25.85;;;3.63;;
31638;SDS011;18248;51.522;7.020;2023-12-28T12:48:11;14.48;;;2.25;;
31638;SDS011;18248;51.522;7.020;2023-12-28T12:51:10;14.55;;;2.75;;
31638;SDS011;18248;51.522;7.020;2023-12-28T12:54:09;13.57;;;2.50;;
31638;SDS011;18248;51.522;7.020;2023-12-28T12:57:07;17.88;;;2.80;;
31638;SDS011;18248;51.522;7.020;2023-12-28T13:00:08;18.58;;;2.35;;
31638;SDS011;18248;51.522;7.020;2023-12-28T13:03:08;17.27;;;2.83;;
31638;SDS011;18248;51.522;7.020;2023-12-28T13:06:09;16.17;;;2.45;;
31638;SDS011;18248;51.522;7.020;2023-12-28T13:09:08;14.13;;;2.42;;
31638;SDS011;18248;51.522;7.020;2023-12-28T13:12:08;17.48;;;2.30;;
31638;SDS011;18248;51.522;7.020;2023-12-28T13:15:07;16.88;;;2.47;;
31638;SDS011;18248;51.522;7.020;2023-12-28T13:18:07;15.35;;;2.97;;
31638;SDS011;18248;51.522;7.020;2023-12-28T13:21:06;15.75;;;2.95;;
31638;SDS011;18248;51.522;7.020;2023-12-28T13:24:05;17.83;;;3.03;;
31638;SDS011;18248;51.522;7.020;2023-12-28T13:27:04;25.75;;;3.50;;
31638;SDS011;18248;51.522;7.020;2023-12-28T13:30:02;14.38;;;3.05;;
31638;SDS011;18248;51.522;7.020;2023-12-28T13:33:01;19.92;;;2.40;;
31638;SDS011;18248;51.522;7.020;2023-12-28T13:36:00;15.50;;;3.15;;
31638;SDS011;18248;51.522;7.020;2023-12-28T13:38:58;17.77;;;2.72;;
31638;SDS011;18248;51.522;7.020;2023-12-28T13:41:57;11.82;;;2.40;;
31638;SDS011;18248;51.522;7.020;2023-12-28T13:44:56;15.40;;;2.50;;
31638;SDS011;18248;51.522;7.020;2023-12-28T13:47:54;11.43;;;2.53;;
31638;SDS011;18248;51.522;7.020;2023-12-28T13:50:53;16.00;;;3.13;;
31638;SDS011;18248;51.522;7.020;2023-12-28T13:53:51;15.13;;;2.63;;
31638;SDS011;18248;51.522;7.020;2023-12-28T13:56:50;15.75;;;2.58;;
31638;SDS011;18248;51.522;7.020;2023-12-28T13:59:54;17.17;;;2.92;;
31638;SDS011;18248;51.522;7.020;2023-12-28T14:02:57;19.00;;;2.95;;
31638;SDS011;18248;51.522;7.020;2023-12-28T14:05:57;18.88;;;2.90;;
31638;SDS011;18248;51.522;7.020;2023-12-28T14:08:55;16.73;;;2.50;;
31638;SDS011;18248;51.522;7.020;2023-12-28T14:11:55;21.35;;;2.70;;
31638;SDS011;18248;51.522;7.020;2023-12-28T14:14:53;15.07;;;1.98;;
31638;SDS011;18248;51.522;7.020;2023-12-28T14:17:52;13.45;;;2.92;;
31638;SDS011;18248;51.522;7.020;2023-12-28T14:20:51;15.85;;;2.60;;
31638;SDS011;18248;51.522;7.020;2023-12-28T14:23:50;17.40;;;2.90;;
31638;SDS011;18248;51.522;7.020;2023-12-28T14:26:49;18.08;;;2.90;;
31638;SDS011;18248;51.522;7.020;2023-12-28T14:29:51;15.07;;;2.78;;
31638;SDS011;18248;51.522;7.020;2023-12-28T14:32:50;17.35;;;2.88;;
31638;SDS011;18248;51.522;7.020;2023-12-28T14:35:49;15.88;;;2.97;;
31638;SDS011;18248;51.522;7.020;2023-12-28T14:38:48;11.38;;;2.38;;
31638;SDS011;18248;51.522;7.020;2023-12-28T14:41:46;17.90;;;2.97;;
31638;SDS011;18248;51.522;7.020;2023-12-28T14:44:45;23.60;;;3.30;;
31638;SDS011;18248;51.522;7.020;2023-12-28T14:47:43;15.38;;;2.67;;
31638;SDS011;18248;51.522;7.020;2023-12-28T14:50:43;11.95;;;2.92;;
31638;SDS011;18248;51.522;7.020;2023-12-28T14:53:42;15.90;;;3.40;;
31638;SDS011;18248;51.522;7.020;2023-12-28T14:56:41;19.95;;;2.95;;
31638;SDS011;18248;51.522;7.020;2023-12-28T14:59:39;14.95;;;2.90;;
31638;SDS011;18248;51.522;7.020;2023-12-28T15:02:38;14.07;;;2.47;;
31638;SDS011;18248;51.522;7.020;2023-12-28T15:05:36;8.68;;;2.20;;
31638;SDS011;18248;51.522;7.020;2023-12-28T15:08:35;16.02;;;2.60;;
31638;SDS011;18248;51.522;7.020;2023-12-28T15:11:33;10.02;;;1.80;;
31638;SDS011;18248;51.522;7.020;2023-12-28T15:14:32;10.80;;;2.47;;
31638;SDS011;18248;51.522;7.020;2023-12-28T15:17:31;13.15;;;2.38;;
31638;SDS011;18248;51.522;7.020;2023-12-28T15:20:30;11.32;;;2.60;;
31638;SDS011;18248;51.522;7.020;2023-12-28T15:23:28;14.98;;;2.55;;
31638;SDS011;18248;51.522;7.020;2023-12-28T15:26:27;13.02;;;2.33;;
31638;SDS011;18248;51.522;7.020;2023-12-28T15:29:26;11.65;;;2.10;;
31638;SDS011;18248;51.522;7.020;2023-12-28T15:32:24;12.95;;;2.45;;
31638;SDS011;18248;51.522;7.020;2023-12-28T15:35:23;13.00;;;2.15;;
31638;SDS011;18248;51.522;7.020;2023-12-28T15:38:21;14.13;;;2.50;;
31638;SDS011;18248;51.522;7.020;2023-12-28T15:41:20;11.55;;;2.45;;
31638;SDS011;18248;51.522;7.020;2023-12-28T15:44:19;14.30;;;2.42;;
31638;SDS011;18248;51.522;7.020;2023-12-28T15:47:17;10.88;;;2.25;;
31638;SDS011;18248;51.522;7.020;2023-12-28T15:50:16;17.70;;;2.40;;
31638;SDS011;18248;51.522;7.020;2023-12-28T15:53:15;10.45;;;2.60;;
31638;SDS011;18248;51.522;7.020;2023-12-28T15:56:13;16.15;;;2.58;;
31638;SDS011;18248;51.522;7.020;2023-12-28T15:59:12;14.02;;;2.50;;
31638;SDS011;18248;51.522;7.020;2023-12-28T16:02:10;14.30;;;2.40;;
31638;SDS011;18248;51.522;7.020;2023-12-28T16:05:09;18.95;;;3.00;;
31638;SDS011;18248;51.522;7.020;2023-12-28T16:08:07;16.35;;;2.88;;
31638;SDS011;18248;51.522;7.020;2023-12-28T16:11:06;28.75;;;3.05;;
31638;SDS011;18248;51.522;7.020;2023-12-28T16:14:05;13.43;;;3.17;;
31638;SDS011;18248;51.522;7.020;2023-12-28T16:17:03;12.70;;;2.38;;
31638;SDS011;18248;51.522;7.020;2023-12-28T16:20:03;20.35;;;2.88;;
31638;SDS011;18248;51.522;7.020;2023-12-28T16:23:02;17.35;;;2.70;;
31638;SDS011;18248;51.522;7.020;2023-12-28T16:26:01;11.57;;;2.25;;
31638;SDS011;18248;51.522;7.020;2023-12-28T16:28:59;15.70;;;2.47;;
31638;SDS011;18248;51.522;7.020;2023-12-28T16:32:00;14.98;;;2.53;;
31638;SDS011;18248;51.522;7.020;2023-12-28T16:34:59;17.65;;;2.50;;
31638;SDS011;18248;51.522;7.020;2023-12-28T16:37:57;13.27;;;2.55;;
31638;SDS011;18248;51.522;7.020;2023-12-28T16:40:56;8.93;;;2.25;;
31638;SDS011;18248;51.522;7.020;2023-12-28T16:43:55;16.02;;;2.35;;
31638;SDS011;18248;51.522;7.020;2023-12-28T16:46:55;13.95;;;2.30;;
31638;SDS011;18248;51.522;7.020;2023-12-28T16:49:55;9.52;;;1.92;;
31638;SDS011;18248;51.522;7.020;2023-12-28T16:52:54;17.10;;;2.80;;
31638;SDS011;18248;51.522;7.020;2023-12-28T16:55:53;15.35;;;2.72;;
31638;SDS011;18248;51.522;7.020;2023-12-28T16:58:51;14.27;;;2.58;;
31638;SDS011;18248;51.522;7.020;2023-12-28T17:01:50;12.55;;;2.55;;
31638;SDS011;18248;51.522;7.020;2023-12-28T17:04:51;16.27;;;2.90;;
31638;SDS011;18248;51.522;7.020;2023-12-28T17:07:50;14.75;;;2.35;;
31638;SDS011;18248;51.522;7.020;2023-12-28T17:10:49;15.43;;;2.67;;
31638;SDS011;18248;51.522;7.020;2023-12-28T17:13:47;16.63;;;3.25;;
31638;SDS011;18248;51.522;7.020;2023-12-28T17:16:46;13.43;;;2.88;;
31638;SDS011;18248;51.522;7.020;2023-12-28T17:19:45;15.05;;;2.65;;
31638;SDS011;18248;51.522;7.020;2023-12-28T17:22:44;16.35;;;2.70;;
31638;SDS011;18248;51.522;7.020;2023-12-28T17:28:46;11.00;;;2.33;;
31638;SDS011;18248;51.522;7.020;2023-12-28T17:34:59;11.07;;;2.28;;
31638;SDS011;18248;51.522;7.020;2023-12-28T17:37:58;14.25;;;2.30;;
31638;SDS011;18248;51.522;7.020;2023-12-28T17:40:58;12.27;;;2.15;;
31638;SDS011;18248;51.522;7.020;2023-12-28T17:43:59;9.27;;;2.38;;
31638;SDS011;18248;51.522;7.020;2023-12-28T17:47:05;11.80;;;2.03;;
31638;SDS011;18248;51.522;7.020;2023-12-28T17:50:10;17.50;;;2.58;;
31638;SDS011;18248;51.522;7.020;2023-12-28T17:53:09;8.32;;;2.08;;
31638;SDS011;18248;51.522;7.020;2023-12-28T17:56:08;11.10;;;2.38;;
31638;SDS011;18248;51.522;7.020;2023-12-28T17:59:07;10.25;;;2.15;;
31638;SDS011;18248;51.522;7.020;2023-12-28T18:02:07;8.18;;;2.10;;